Terminal Aerodrome Forecast
Issued by NWS Newport/Morehead City, NC

Home | Current Version | Previous Version | Text Only | Print | Product List | Glossary Off
Versions: 1 2 3 4 5 6 7 8 9 10 11 12 13 14 15 16 17 18 19 20

000
FTUS42 KMHX 022355
TAFEWN
TAF
KEWN 022355Z 0300/0324 19008KT P6SM SKC
     FM030800 20003KT 5SM BR BKN150
     FM031200 21007KT P6SM VCSH BKN150
     FM031600 20010KT P6SM VCTS BKN050CB=

USA.gov is the U.S. government's official web portal to all federal, state and local government web resources and services.